KCNM/CNM METAR and TAF weather

Enter ICAO airport designator
Station Type Date Time Source
KCNM METAR 2019/12/11 17:44 UTC NOAA

KCNM 111744Z AUTO 16007KT 1 1/2SM BR OVC002 03/03 A3036 RMK AO2 T00280028


Station Type Date Time Source
KCNM Decoded METAR 2019/12/11 17:44 UTC NOAA

CARLSBAD CAVERN CITY, NM, United States (KCNM) 32-20N 104-16W 985M
Dec 11, 2019 - 12:44 PM EST / 2019.12.11 1744 UTC
Wind: from the SSE (160 degrees) at 8 MPH (7 KT):0
Visibility: 1 1/2 mile(s):0
Sky conditions: overcast
Weather: mist
Temperature: 37.0 F (2.8 C)
Dew Point: 37.0 F (2.8 C)
Relative Humidity: 100%
Pressure (altimeter): 30.36 in. Hg (1028 hPa)
ob: KCNM 111744Z AUTO 16007KT 1 1/2SM BR OVC002 03/03 A3036 RMK AO2 T00280028
cycle: 17

Station Type Date Time Source
KCNM TAF 2019/12/11 18:42 UTC NOAA

TAF KCNM 111740Z 1118/1218 15008KT 1/2SM FG OVC004
FM112100 18007KT P6SM FEW200
FM120600 17010KT 4SM BR OVC004

Example: see airport list